sensor_id;sensor_type;location;lat;lon;timestamp;P1;durP1;ratioP1;P2;durP2;ratioP2
23868;SDS011;12115;47.128;15.422;2023-02-28T00:01:07;6.68;;;3.30;;
23868;SDS011;12115;47.128;15.422;2023-02-28T00:03:34;6.47;;;3.05;;
23868;SDS011;12115;47.128;15.422;2023-02-28T00:06:05;7.70;;;3.30;;
23868;SDS011;12115;47.128;15.422;2023-02-28T00:08:33;4.95;;;3.50;;
23868;SDS011;12115;47.128;15.422;2023-02-28T00:11:01;5.10;;;3.40;;
23868;SDS011;12115;47.128;15.422;2023-02-28T00:13:29;5.10;;;3.50;;
23868;SDS011;12115;47.128;15.422;2023-02-28T00:16:01;8.27;;;3.80;;
23868;SDS011;12115;47.128;15.422;2023-02-28T00:18:30;5.43;;;3.30;;
23868;SDS011;12115;47.128;15.422;2023-02-28T00:20:58;4.43;;;2.97;;
23868;SDS011;12115;47.128;15.422;2023-02-28T00:23:26;5.07;;;3.47;;
23868;SDS011;12115;47.128;15.422;2023-02-28T00:25:54;3.85;;;3.30;;
23868;SDS011;12115;47.128;15.422;2023-02-28T00:28:22;4.97;;;2.90;;
23868;SDS011;12115;47.128;15.422;2023-02-28T00:30:50;5.15;;;3.15;;
23868;SDS011;12115;47.128;15.422;2023-02-28T00:33:17;4.85;;;3.30;;
23868;SDS011;12115;47.128;15.422;2023-02-28T00:35:46;5.82;;;3.15;;
23868;SDS011;12115;47.128;15.422;2023-02-28T00:38:15;4.13;;;3.15;;
23868;SDS011;12115;47.128;15.422;2023-02-28T00:40:42;5.95;;;3.28;;
23868;SDS011;12115;47.128;15.422;2023-02-28T00:43:10;3.47;;;2.75;;
23868;SDS011;12115;47.128;15.422;2023-02-28T00:45:37;5.32;;;2.70;;
23868;SDS011;12115;47.128;15.422;2023-02-28T00:48:04;5.45;;;3.20;;
23868;SDS011;12115;47.128;15.422;2023-02-28T00:50:32;4.63;;;3.03;;
23868;SDS011;12115;47.128;15.422;2023-02-28T00:53:00;5.45;;;3.60;;
23868;SDS011;12115;47.128;15.422;2023-02-28T00:55:27;4.40;;;2.95;;
23868;SDS011;12115;47.128;15.422;2023-02-28T00:57:54;4.32;;;2.75;;
23868;SDS011;12115;47.128;15.422;2023-02-28T01:00:22;5.28;;;3.47;;
23868;SDS011;12115;47.128;15.422;2023-02-28T01:02:49;6.07;;;3.00;;
23868;SDS011;12115;47.128;15.422;2023-02-28T01:05:17;3.70;;;2.85;;
23868;SDS011;12115;47.128;15.422;2023-02-28T01:07:44;6.90;;;3.33;;
23868;SDS011;12115;47.128;15.422;2023-02-28T01:10:11;6.03;;;3.40;;
23868;SDS011;12115;47.128;15.422;2023-02-28T01:12:39;4.50;;;3.20;;
23868;SDS011;12115;47.128;15.422;2023-02-28T01:15:09;5.65;;;3.60;;
23868;SDS011;12115;47.128;15.422;2023-02-28T01:17:37;5.22;;;3.50;;
23868;SDS011;12115;47.128;15.422;2023-02-28T01:20:05;5.40;;;3.65;;
23868;SDS011;12115;47.128;15.422;2023-02-28T01:22:34;4.30;;;3.15;;
23868;SDS011;12115;47.128;15.422;2023-02-28T01:25:03;6.63;;;3.30;;
23868;SDS011;12115;47.128;15.422;2023-02-28T01:27:30;6.97;;;3.13;;
23868;SDS011;12115;47.128;15.422;2023-02-28T01:29:58;4.03;;;3.22;;
23868;SDS011;12115;47.128;15.422;2023-02-28T01:32:25;6.10;;;3.65;;
23868;SDS011;12115;47.128;15.422;2023-02-28T01:34:53;4.60;;;3.10;;
23868;SDS011;12115;47.128;15.422;2023-02-28T01:37:22;4.45;;;2.90;;
23868;SDS011;12115;47.128;15.422;2023-02-28T01:39:49;5.43;;;3.55;;
23868;SDS011;12115;47.128;15.422;2023-02-28T01:42:19;5.95;;;3.88;;
23868;SDS011;12115;47.128;15.422;2023-02-28T01:47:25;6.57;;;3.22;;
23868;SDS011;12115;47.128;15.422;2023-02-28T01:49:59;7.10;;;3.42;;
23868;SDS011;12115;47.128;15.422;2023-02-28T01:52:31;4.88;;;3.20;;
23868;SDS011;12115;47.128;15.422;2023-02-28T01:54:59;5.10;;;3.35;;
23868;SDS011;12115;47.128;15.422;2023-02-28T01:57:30;3.67;;;2.85;;
23868;SDS011;12115;47.128;15.422;2023-02-28T02:02:40;5.15;;;3.75;;
23868;SDS011;12115;47.128;15.422;2023-02-28T02:05:11;7.00;;;4.18;;
23868;SDS011;12115;47.128;15.422;2023-02-28T02:07:52;5.45;;;3.22;;
23868;SDS011;12115;47.128;15.422;2023-02-28T02:13:13;6.10;;;3.65;;
23868;SDS011;12115;47.128;15.422;2023-02-28T02:24:40;5.15;;;3.05;;
23868;SDS011;12115;47.128;15.422;2023-02-28T02:35:49;5.13;;;3.13;;
23868;SDS011;12115;47.128;15.422;2023-02-28T02:43:44;3.92;;;2.78;;
23868;SDS011;12115;47.128;15.422;2023-02-28T02:46:34;5.18;;;3.30;;
23868;SDS011;12115;47.128;15.422;2023-02-28T02:49:20;5.82;;;3.53;;
23868;SDS011;12115;47.128;15.422;2023-02-28T02:51:50;4.78;;;3.55;;
23868;SDS011;12115;47.128;15.422;2023-02-28T02:54:24;4.63;;;3.42;;
23868;SDS011;12115;47.128;15.422;2023-02-28T02:56:57;4.82;;;3.95;;
23868;SDS011;12115;47.128;15.422;2023-02-28T02:59:27;5.95;;;3.67;;
23868;SDS011;12115;47.128;15.422;2023-02-28T03:02:01;4.50;;;3.10;;
23868;SDS011;12115;47.128;15.422;2023-02-28T03:04:34;7.90;;;3.30;;
23868;SDS011;12115;47.128;15.422;2023-02-28T03:07:07;4.07;;;3.00;;
23868;SDS011;12115;47.128;15.422;2023-02-28T03:09:34;6.78;;;3.78;;
23868;SDS011;12115;47.128;15.422;2023-02-28T03:22:45;6.13;;;3.83;;
23868;SDS011;12115;47.128;15.422;2023-02-28T03:31:15;5.45;;;3.50;;
23868;SDS011;12115;47.128;15.422;2023-02-28T03:36:57;4.30;;;3.08;;
23868;SDS011;12115;47.128;15.422;2023-02-28T03:39:33;5.28;;;3.40;;
23868;SDS011;12115;47.128;15.422;2023-02-28T03:42:09;5.60;;;3.55;;
23868;SDS011;12115;47.128;15.422;2023-02-28T03:44:59;4.95;;;3.58;;
23868;SDS011;12115;47.128;15.422;2023-02-28T03:50:31;5.18;;;3.65;;
23868;SDS011;12115;47.128;15.422;2023-02-28T03:53:25;5.50;;;3.50;;
23868;SDS011;12115;47.128;15.422;2023-02-28T04:01:15;8.50;;;3.70;;
23868;SDS011;12115;47.128;15.422;2023-02-28T04:03:53;5.68;;;3.67;;
23868;SDS011;12115;47.128;15.422;2023-02-28T04:06:21;4.72;;;3.25;;
23868;SDS011;12115;47.128;15.422;2023-02-28T04:08:50;5.68;;;4.03;;
23868;SDS011;12115;47.128;15.422;2023-02-28T04:11:53;5.03;;;3.35;;
23868;SDS011;12115;47.128;15.422;2023-02-28T04:14:13;5.88;;;3.75;;
23868;SDS011;12115;47.128;15.422;2023-02-28T04:16:41;5.60;;;3.75;;
23868;SDS011;12115;47.128;15.422;2023-02-28T04:19:09;4.72;;;3.00;;
23868;SDS011;12115;47.128;15.422;2023-02-28T04:21:39;5.68;;;3.78;;
23868;SDS011;12115;47.128;15.422;2023-02-28T04:24:09;6.60;;;3.83;;
23868;SDS011;12115;47.128;15.422;2023-02-28T04:26:41;4.88;;;3.72;;
23868;SDS011;12115;47.128;15.422;2023-02-28T04:29:12;3.80;;;3.35;;
23868;SDS011;12115;47.128;15.422;2023-02-28T04:31:40;5.25;;;3.50;;
23868;SDS011;12115;47.128;15.422;2023-02-28T04:34:08;5.07;;;3.47;;
23868;SDS011;12115;47.128;15.422;2023-02-28T04:36:35;5.63;;;3.85;;
23868;SDS011;12115;47.128;15.422;2023-02-28T04:39:02;5.65;;;3.55;;
23868;SDS011;12115;47.128;15.422;2023-02-28T04:41:30;4.95;;;3.88;;
23868;SDS011;12115;47.128;15.422;2023-02-28T04:43:58;5.35;;;4.00;;
23868;SDS011;12115;47.128;15.422;2023-02-28T04:46:26;5.53;;;3.75;;
23868;SDS011;12115;47.128;15.422;2023-02-28T04:48:53;4.70;;;3.80;;
23868;SDS011;12115;47.128;15.422;2023-02-28T04:51:22;4.47;;;3.70;;
23868;SDS011;12115;47.128;15.422;2023-02-28T04:53:49;6.25;;;3.70;;
23868;SDS011;12115;47.128;15.422;2023-02-28T04:56:16;6.13;;;3.75;;
23868;SDS011;12115;47.128;15.422;2023-02-28T04:58:44;7.82;;;3.58;;
23868;SDS011;12115;47.128;15.422;2023-02-28T05:01:18;4.55;;;3.72;;
23868;SDS011;12115;47.128;15.422;2023-02-28T05:03:45;5.22;;;3.50;;
23868;SDS011;12115;47.128;15.422;2023-02-28T05:06:13;5.40;;;3.63;;
23868;SDS011;12115;47.128;15.422;2023-02-28T05:08:40;7.30;;;3.33;;
23868;SDS011;12115;47.128;15.422;2023-02-28T05:11:24;6.35;;;4.25;;
23868;SDS011;12115;47.128;15.422;2023-02-28T05:13:53;4.82;;;3.67;;
23868;SDS011;12115;47.128;15.422;2023-02-28T05:16:20;5.90;;;3.58;;
23868;SDS011;12115;47.128;15.422;2023-02-28T05:18:48;4.25;;;3.72;;
23868;SDS011;12115;47.128;15.422;2023-02-28T05:23:51;4.72;;;3.25;;
23868;SDS011;12115;47.128;15.422;2023-02-28T05:26:19;5.53;;;3.90;;
23868;SDS011;12115;47.128;15.422;2023-02-28T05:28:46;5.75;;;4.00;;
23868;SDS011;12115;47.128;15.422;2023-02-28T05:31:14;5.05;;;3.65;;
23868;SDS011;12115;47.128;15.422;2023-02-28T05:33:41;5.22;;;3.78;;
23868;SDS011;12115;47.128;15.422;2023-02-28T05:36:09;6.70;;;3.55;;
23868;SDS011;12115;47.128;15.422;2023-02-28T05:38:36;7.05;;;3.72;;
23868;SDS011;12115;47.128;15.422;2023-02-28T05:41:07;6.22;;;3.90;;
23868;SDS011;12115;47.128;15.422;2023-02-28T05:43:36;6.10;;;3.97;;
23868;SDS011;12115;47.128;15.422;2023-02-28T05:46:07;5.55;;;4.07;;
23868;SDS011;12115;47.128;15.422;2023-02-28T05:48:37;5.35;;;3.90;;
23868;SDS011;12115;47.128;15.422;2023-02-28T05:51:05;7.53;;;3.92;;
23868;SDS011;12115;47.128;15.422;2023-02-28T05:53:33;6.85;;;4.90;;
23868;SDS011;12115;47.128;15.422;2023-02-28T05:56:01;6.82;;;4.78;;
23868;SDS011;12115;47.128;15.422;2023-02-28T05:58:30;8.30;;;5.75;;
23868;SDS011;12115;47.128;15.422;2023-02-28T06:00:58;9.23;;;6.85;;
23868;SDS011;12115;47.128;15.422;2023-02-28T06:03:26;10.10;;;6.03;;
23868;SDS011;12115;47.128;15.422;2023-02-28T06:05:54;9.02;;;6.43;;
23868;SDS011;12115;47.128;15.422;2023-02-28T06:08:21;8.98;;;6.45;;
23868;SDS011;12115;47.128;15.422;2023-02-28T06:10:48;12.68;;;6.72;;
23868;SDS011;12115;47.128;15.422;2023-02-28T06:13:16;12.57;;;7.28;;
23868;SDS011;12115;47.128;15.422;2023-02-28T06:15:43;9.02;;;6.60;;
23868;SDS011;12115;47.128;15.422;2023-02-28T06:18:10;10.27;;;6.88;;
23868;SDS011;12115;47.128;15.422;2023-02-28T06:20:38;9.73;;;6.70;;
23868;SDS011;12115;47.128;15.422;2023-02-28T06:23:05;12.98;;;7.25;;
23868;SDS011;12115;47.128;15.422;2023-02-28T06:25:33;11.32;;;7.65;;
23868;SDS011;12115;47.128;15.422;2023-02-28T06:28:00;14.30;;;7.20;;
23868;SDS011;12115;47.128;15.422;2023-02-28T06:30:29;10.73;;;6.93;;
23868;SDS011;12115;47.128;15.422;2023-02-28T06:32:57;11.13;;;7.10;;
23868;SDS011;12115;47.128;15.422;2023-02-28T06:35:25;13.23;;;7.63;;
23868;SDS011;12115;47.128;15.422;2023-02-28T06:37:53;10.80;;;7.70;;
23868;SDS011;12115;47.128;15.422;2023-02-28T06:40:20;11.68;;;8.10;;
23868;SDS011;12115;47.128;15.422;2023-02-28T06:42:47;10.85;;;7.55;;
23868;SDS011;12115;47.128;15.422;2023-02-28T06:45:15;13.05;;;7.65;;
23868;SDS011;12115;47.128;15.422;2023-02-28T06:47:42;13.73;;;8.85;;
23868;SDS011;12115;47.128;15.422;2023-02-28T06:50:10;14.32;;;7.90;;
23868;SDS011;12115;47.128;15.422;2023-02-28T06:52:39;12.90;;;7.93;;
23868;SDS011;12115;47.128;15.422;2023-02-28T06:55:07;11.38;;;7.85;;
23868;SDS011;12115;47.128;15.422;2023-02-28T06:57:35;11.63;;;8.55;;
23868;SDS011;12115;47.128;15.422;2023-02-28T07:00:07;11.00;;;7.05;;
23868;SDS011;12115;47.128;15.422;2023-02-28T07:02:36;12.35;;;7.38;;
23868;SDS011;12115;47.128;15.422;2023-02-28T07:05:04;13.40;;;8.32;;
23868;SDS011;12115;47.128;15.422;2023-02-28T07:07:32;10.20;;;7.13;;
23868;SDS011;12115;47.128;15.422;2023-02-28T07:10:00;11.48;;;7.75;;
23868;SDS011;12115;47.128;15.422;2023-02-28T07:12:28;10.75;;;7.72;;
23868;SDS011;12115;47.128;15.422;2023-02-28T07:14:55;11.93;;;8.35;;
23868;SDS011;12115;47.128;15.422;2023-02-28T07:17:23;11.15;;;7.30;;
23868;SDS011;12115;47.128;15.422;2023-02-28T07:19:50;10.75;;;7.53;;
23868;SDS011;12115;47.128;15.422;2023-02-28T07:22:17;13.50;;;8.35;;
23868;SDS011;12115;47.128;15.422;2023-02-28T07:24:45;11.93;;;8.30;;
23868;SDS011;12115;47.128;15.422;2023-02-28T07:27:12;16.10;;;8.13;;
23868;SDS011;12115;47.128;15.422;2023-02-28T07:29:50;9.82;;;7.15;;
23868;SDS011;12115;47.128;15.422;2023-02-28T07:32:17;13.13;;;8.10;;
23868;SDS011;12115;47.128;15.422;2023-02-28T07:34:45;12.48;;;7.57;;
23868;SDS011;12115;47.128;15.422;2023-02-28T07:37:13;12.90;;;7.68;;
23868;SDS011;12115;47.128;15.422;2023-02-28T07:39:40;10.52;;;7.95;;
23868;SDS011;12115;47.128;15.422;2023-02-28T07:42:10;10.68;;;7.40;;
23868;SDS011;12115;47.128;15.422;2023-02-28T07:44:39;12.02;;;8.30;;
23868;SDS011;12115;47.128;15.422;2023-02-28T07:47:10;12.32;;;7.80;;
23868;SDS011;12115;47.128;15.422;2023-02-28T07:49:37;11.85;;;7.88;;
23868;SDS011;12115;47.128;15.422;2023-02-28T07:52:06;11.65;;;8.82;;
23868;SDS011;12115;47.128;15.422;2023-02-28T07:54:33;13.27;;;8.63;;
23868;SDS011;12115;47.128;15.422;2023-02-28T07:57:02;15.70;;;8.95;;
23868;SDS011;12115;47.128;15.422;2023-02-28T07:59:29;13.10;;;8.60;;
23868;SDS011;12115;47.128;15.422;2023-02-28T08:01:58;12.60;;;8.43;;
23868;SDS011;12115;47.128;15.422;2023-02-28T08:04:26;9.70;;;7.57;;
23868;SDS011;12115;47.128;15.422;2023-02-28T08:06:53;12.30;;;8.48;;
23868;SDS011;12115;47.128;15.422;2023-02-28T08:09:20;12.63;;;7.82;;
23868;SDS011;12115;47.128;15.422;2023-02-28T08:11:48;10.85;;;7.80;;
23868;SDS011;12115;47.128;15.422;2023-02-28T08:14:15;10.10;;;7.43;;
23868;SDS011;12115;47.128;15.422;2023-02-28T08:16:42;12.70;;;8.00;;
23868;SDS011;12115;47.128;15.422;2023-02-28T08:19:10;10.63;;;7.93;;
23868;SDS011;12115;47.128;15.422;2023-02-28T08:21:37;13.27;;;8.60;;
23868;SDS011;12115;47.128;15.422;2023-02-28T08:24:04;13.80;;;8.43;;
23868;SDS011;12115;47.128;15.422;2023-02-28T08:26:32;10.52;;;6.95;;
23868;SDS011;12115;47.128;15.422;2023-02-28T08:28:59;13.35;;;8.48;;
23868;SDS011;12115;47.128;15.422;2023-02-28T08:31:27;13.27;;;8.52;;
23868;SDS011;12115;47.128;15.422;2023-02-28T08:33:55;12.85;;;8.32;;
23868;SDS011;12115;47.128;15.422;2023-02-28T08:36:25;11.85;;;8.15;;
23868;SDS011;12115;47.128;15.422;2023-02-28T08:38:56;14.25;;;8.52;;
23868;SDS011;12115;47.128;15.422;2023-02-28T08:41:24;13.23;;;8.20;;
23868;SDS011;12115;47.128;15.422;2023-02-28T08:43:52;16.67;;;8.48;;
23868;SDS011;12115;47.128;15.422;2023-02-28T08:46:20;13.05;;;8.40;;
23868;SDS011;12115;47.128;15.422;2023-02-28T08:48:51;12.00;;;8.45;;
23868;SDS011;12115;47.128;15.422;2023-02-28T08:51:20;12.13;;;8.90;;
23868;SDS011;12115;47.128;15.422;2023-02-28T08:53:58;14.27;;;8.88;;
23868;SDS011;12115;47.128;15.422;2023-02-28T08:56:27;10.90;;;7.85;;
23868;SDS011;12115;47.128;15.422;2023-02-28T08:58:56;10.27;;;7.95;;
23868;SDS011;12115;47.128;15.422;2023-02-28T09:01:25;14.98;;;8.88;;
23868;SDS011;12115;47.128;15.422;2023-02-28T09:03:54;12.93;;;8.45;;
23868;SDS011;12115;47.128;15.422;2023-02-28T09:06:23;12.10;;;8.00;;
23868;SDS011;12115;47.128;15.422;2023-02-28T09:08:55;12.38;;;8.55;;
23868;SDS011;12115;47.128;15.422;2023-02-28T09:11:25;13.38;;;8.43;;
23868;SDS011;12115;47.128;15.422;2023-02-28T09:13:52;13.05;;;8.40;;
23868;SDS011;12115;47.128;15.422;2023-02-28T09:16:21;13.40;;;9.13;;
23868;SDS011;12115;47.128;15.422;2023-02-28T09:18:49;16.10;;;8.80;;
23868;SDS011;12115;47.128;15.422;2023-02-28T09:21:17;12.05;;;8.40;;
23868;SDS011;12115;47.128;15.422;2023-02-28T09:23:46;15.60;;;9.52;;
23868;SDS011;12115;47.128;15.422;2023-02-28T09:26:15;14.68;;;9.27;;
23868;SDS011;12115;47.128;15.422;2023-02-28T09:28:44;12.52;;;8.38;;
23868;SDS011;12115;47.128;15.422;2023-02-28T09:31:16;14.63;;;9.82;;
23868;SDS011;12115;47.128;15.422;2023-02-28T09:33:49;11.05;;;8.13;;
23868;SDS011;12115;47.128;15.422;2023-02-28T09:36:18;13.15;;;8.73;;
23868;SDS011;12115;47.128;15.422;2023-02-28T09:38:50;12.30;;;8.23;;
23868;SDS011;12115;47.128;15.422;2023-02-28T09:41:21;11.27;;;8.75;;
23868;SDS011;12115;47.128;15.422;2023-02-28T09:43:51;13.50;;;9.37;;
23868;SDS011;12115;47.128;15.422;2023-02-28T09:46:35;14.32;;;9.43;;
23868;SDS011;12115;47.128;15.422;2023-02-28T09:49:14;16.52;;;9.07;;
23868;SDS011;12115;47.128;15.422;2023-02-28T09:51:56;12.05;;;8.60;;
23868;SDS011;12115;47.128;15.422;2023-02-28T09:54:28;16.08;;;10.07;;
23868;SDS011;12115;47.128;15.422;2023-02-28T09:59:49;15.23;;;9.18;;
23868;SDS011;12115;47.128;15.422;2023-02-28T10:02:57;14.80;;;9.60;;
23868;SDS011;12115;47.128;15.422;2023-02-28T10:06:29;13.35;;;8.90;;
23868;SDS011;12115;47.128;15.422;2023-02-28T10:08:38;13.20;;;9.25;;
23868;SDS011;12115;47.128;15.422;2023-02-28T10:11:12;12.10;;;8.63;;
23868;SDS011;12115;47.128;15.422;2023-02-28T10:13:53;12.77;;;9.10;;
23868;SDS011;12115;47.128;15.422;2023-02-28T10:16:30;13.68;;;10.25;;
23868;SDS011;12115;47.128;15.422;2023-02-28T10:19:30;16.33;;;9.20;;
23868;SDS011;12115;47.128;15.422;2023-02-28T10:22:13;17.92;;;11.18;;
23868;SDS011;12115;47.128;15.422;2023-02-28T10:24:42;12.82;;;9.20;;
23868;SDS011;12115;47.128;15.422;2023-02-28T10:27:16;13.50;;;9.43;;
23868;SDS011;12115;47.128;15.422;2023-02-28T10:29:46;14.73;;;10.07;;
23868;SDS011;12115;47.128;15.422;2023-02-28T10:32:18;13.48;;;9.65;;
23868;SDS011;12115;47.128;15.422;2023-02-28T10:34:55;14.85;;;10.02;;
23868;SDS011;12115;47.128;15.422;2023-02-28T10:37:27;13.75;;;9.68;;
23868;SDS011;12115;47.128;15.422;2023-02-28T10:39:54;14.65;;;9.60;;
23868;SDS011;12115;47.128;15.422;2023-02-28T10:42:24;15.77;;;10.60;;
23868;SDS011;12115;47.128;15.422;2023-02-28T10:45:06;17.20;;;10.70;;
23868;SDS011;12115;47.128;15.422;2023-02-28T10:47:50;16.13;;;10.80;;
23868;SDS011;12115;47.128;15.422;2023-02-28T10:58:46;15.40;;;9.93;;
23868;SDS011;12115;47.128;15.422;2023-02-28T11:01:47;16.60;;;10.10;;
23868;SDS011;12115;47.128;15.422;2023-02-28T11:07:00;17.33;;;11.30;;
23868;SDS011;12115;47.128;15.422;2023-02-28T11:09:33;16.17;;;10.48;;
23868;SDS011;12115;47.128;15.422;2023-02-28T11:12:02;17.42;;;11.07;;
23868;SDS011;12115;47.128;15.422;2023-02-28T11:14:33;16.80;;;10.35;;
23868;SDS011;12115;47.128;15.422;2023-02-28T11:17:14;18.10;;;11.80;;
23868;SDS011;12115;47.128;15.422;2023-02-28T11:19:56;13.23;;;9.40;;
23868;SDS011;12115;47.128;15.422;2023-02-28T11:22:35;16.50;;;10.85;;
23868;SDS011;12115;47.128;15.422;2023-02-28T11:25:07;14.50;;;10.90;;
23868;SDS011;12115;47.128;15.422;2023-02-28T11:27:44;16.35;;;11.20;;
23868;SDS011;12115;47.128;15.422;2023-02-28T11:30:23;17.70;;;11.05;;
23868;SDS011;12115;47.128;15.422;2023-02-28T11:32:56;18.13;;;11.10;;
23868;SDS011;12115;47.128;15.422;2023-02-28T11:38:01;32.70;;;16.85;;
23868;SDS011;12115;47.128;15.422;2023-02-28T11:51:24;19.45;;;11.48;;
23868;SDS011;12115;47.128;15.422;2023-02-28T11:54:16;19.38;;;12.25;;
23868;SDS011;12115;47.128;15.422;2023-02-28T12:00:01;21.53;;;12.00;;
23868;SDS011;12115;47.128;15.422;2023-02-28T12:05:46;18.17;;;11.23;;
23868;SDS011;12115;47.128;15.422;2023-02-28T12:28:51;16.17;;;11.32;;
23868;SDS011;12115;47.128;15.422;2023-02-28T12:31:34;15.82;;;10.60;;
23868;SDS011;12115;47.128;15.422;2023-02-28T12:34:06;24.83;;;11.85;;
23868;SDS011;12115;47.128;15.422;2023-02-28T12:36:40;17.95;;;11.48;;
23868;SDS011;12115;47.128;15.422;2023-02-28T12:41:54;15.20;;;11.05;;
23868;SDS011;12115;47.128;15.422;2023-02-28T12:44:35;14.48;;;10.77;;
23868;SDS011;12115;47.128;15.422;2023-02-28T12:47:14;18.77;;;11.57;;
23868;SDS011;12115;47.128;15.422;2023-02-28T12:55:23;19.25;;;11.82;;
23868;SDS011;12115;47.128;15.422;2023-02-28T13:09:53;17.52;;;11.85;;
23868;SDS011;12115;47.128;15.422;2023-02-28T13:12:26;14.35;;;11.32;;
23868;SDS011;12115;47.128;15.422;2023-02-28T13:15:05;19.10;;;11.45;;
23868;SDS011;12115;47.128;15.422;2023-02-28T13:18:00;18.17;;;12.13;;
23868;SDS011;12115;47.128;15.422;2023-02-28T13:20:35;19.23;;;12.63;;
23868;SDS011;12115;47.128;15.422;2023-02-28T13:23:04;15.10;;;11.45;;
23868;SDS011;12115;47.128;15.422;2023-02-28T13:34:32;18.10;;;11.77;;
23868;SDS011;12115;47.128;15.422;2023-02-28T14:07:15;17.90;;;12.95;;
23868;SDS011;12115;47.128;15.422;2023-02-28T14:09:56;14.98;;;11.18;;
23868;SDS011;12115;47.128;15.422;2023-02-28T14:18:31;16.52;;;10.82;;
23868;SDS011;12115;47.128;15.422;2023-02-28T14:26:37;17.73;;;10.77;;
23868;SDS011;12115;47.128;15.422;2023-02-28T14:32:15;20.63;;;12.70;;
23868;SDS011;12115;47.128;15.422;2023-02-28T14:37:59;19.17;;;11.73;;
23868;SDS011;12115;47.128;15.422;2023-02-28T14:40:40;17.70;;;11.70;;
23868;SDS011;12115;47.128;15.422;2023-02-28T14:43:18;15.52;;;11.40;;
23868;SDS011;12115;47.128;15.422;2023-02-28T14:45:49;16.40;;;11.05;;
23868;SDS011;12115;47.128;15.422;2023-02-28T14:48:23;17.73;;;12.07;;
23868;SDS011;12115;47.128;15.422;2023-02-28T14:50:54;17.27;;;12.85;;
23868;SDS011;12115;47.128;15.422;2023-02-28T14:53:28;17.08;;;11.48;;
23868;SDS011;12115;47.128;15.422;2023-02-28T14:55:57;24.70;;;12.95;;
23868;SDS011;12115;47.128;15.422;2023-02-28T14:58:27;16.75;;;12.40;;
23868;SDS011;12115;47.128;15.422;2023-02-28T15:00:58;20.17;;;12.10;;
23868;SDS011;12115;47.128;15.422;2023-02-28T15:05:58;18.67;;;12.20;;
23868;SDS011;12115;47.128;15.422;2023-02-28T15:08:31;18.52;;;11.50;;
23868;SDS011;12115;47.128;15.422;2023-02-28T15:11:13;18.58;;;11.98;;
23868;SDS011;12115;47.128;15.422;2023-02-28T15:13:46;18.35;;;12.50;;
23868;SDS011;12115;47.128;15.422;2023-02-28T15:16:22;15.77;;;10.65;;
23868;SDS011;12115;47.128;15.422;2023-02-28T15:18:56;17.73;;;11.93;;
23868;SDS011;12115;47.128;15.422;2023-02-28T15:23:59;18.05;;;11.38;;
23868;SDS011;12115;47.128;15.422;2023-02-28T15:26:33;18.30;;;11.75;;
23868;SDS011;12115;47.128;15.422;2023-02-28T15:29:06;17.45;;;11.27;;
23868;SDS011;12115;47.128;15.422;2023-02-28T15:31:46;21.00;;;12.93;;
23868;SDS011;12115;47.128;15.422;2023-02-28T15:34:28;19.20;;;12.43;;
23868;SDS011;12115;47.128;15.422;2023-02-28T15:39:54;17.60;;;10.38;;
23868;SDS011;12115;47.128;15.422;2023-02-28T15:42:28;15.20;;;11.13;;
23868;SDS011;12115;47.128;15.422;2023-02-28T15:44:56;17.92;;;11.40;;
23868;SDS011;12115;47.128;15.422;2023-02-28T15:47:25;20.70;;;12.55;;
23868;SDS011;12115;47.128;15.422;2023-02-28T15:49:56;16.55;;;12.10;;
23868;SDS011;12115;47.128;15.422;2023-02-28T15:52:42;17.23;;;11.77;;
23868;SDS011;12115;47.128;15.422;2023-02-28T15:55:21;19.42;;;12.10;;
23868;SDS011;12115;47.128;15.422;2023-02-28T15:57:51;16.55;;;11.52;;
23868;SDS011;12115;47.128;15.422;2023-02-28T16:00:22;17.52;;;11.38;;
23868;SDS011;12115;47.128;15.422;2023-02-28T16:02:51;18.90;;;12.07;;
23868;SDS011;12115;47.128;15.422;2023-02-28T16:05:23;19.70;;;12.27;;
23868;SDS011;12115;47.128;15.422;2023-02-28T16:08:01;17.77;;;11.43;;
23868;SDS011;12115;47.128;15.422;2023-02-28T16:10:38;22.90;;;11.38;;
23868;SDS011;12115;47.128;15.422;2023-02-28T16:13:05;19.58;;;11.80;;
23868;SDS011;12115;47.128;15.422;2023-02-28T16:15:35;16.67;;;10.38;;
23868;SDS011;12115;47.128;15.422;2023-02-28T16:18:10;18.25;;;11.02;;
23868;SDS011;12115;47.128;15.422;2023-02-28T16:20:38;20.75;;;13.07;;
23868;SDS011;12115;47.128;15.422;2023-02-28T16:23:06;23.52;;;13.50;;
23868;SDS011;12115;47.128;15.422;2023-02-28T16:25:35;21.35;;;12.82;;
23868;SDS011;12115;47.128;15.422;2023-02-28T16:28:27;20.70;;;13.00;;
23868;SDS011;12115;47.128;15.422;2023-02-28T16:31:03;20.65;;;13.20;;
23868;SDS011;12115;47.128;15.422;2023-02-28T16:33:33;20.67;;;13.68;;
23868;SDS011;12115;47.128;15.422;2023-02-28T16:36:01;19.25;;;12.25;;
23868;SDS011;12115;47.128;15.422;2023-02-28T16:38:29;21.23;;;12.73;;
23868;SDS011;12115;47.128;15.422;2023-02-28T16:40:57;19.10;;;12.65;;
23868;SDS011;12115;47.128;15.422;2023-02-28T16:43:26;18.17;;;11.30;;
23868;SDS011;12115;47.128;15.422;2023-02-28T16:45:54;22.65;;;12.80;;
23868;SDS011;12115;47.128;15.422;2023-02-28T16:48:26;18.92;;;11.43;;
23868;SDS011;12115;47.128;15.422;2023-02-28T16:50:55;21.80;;;13.57;;
23868;SDS011;12115;47.128;15.422;2023-02-28T16:53:22;20.88;;;13.18;;
23868;SDS011;12115;47.128;15.422;2023-02-28T16:55:49;27.80;;;14.48;;
23868;SDS011;12115;47.128;15.422;2023-02-28T16:58:18;20.95;;;13.15;;
23868;SDS011;12115;47.128;15.422;2023-02-28T17:00:48;22.90;;;12.85;;
23868;SDS011;12115;47.128;15.422;2023-02-28T17:03:23;20.88;;;12.05;;
23868;SDS011;12115;47.128;15.422;2023-02-28T17:05:59;17.60;;;12.18;;
23868;SDS011;12115;47.128;15.422;2023-02-28T17:08:27;19.33;;;12.25;;
23868;SDS011;12115;47.128;15.422;2023-02-28T17:10:56;17.83;;;11.93;;
23868;SDS011;12115;47.128;15.422;2023-02-28T17:13:24;21.73;;;12.48;;
23868;SDS011;12115;47.128;15.422;2023-02-28T17:15:53;16.95;;;12.45;;
23868;SDS011;12115;47.128;15.422;2023-02-28T17:18:21;19.92;;;12.98;;
23868;SDS011;12115;47.128;15.422;2023-02-28T17:20:52;18.10;;;12.45;;
23868;SDS011;12115;47.128;15.422;2023-02-28T17:23:19;20.98;;;12.65;;
23868;SDS011;12115;47.128;15.422;2023-02-28T17:25:47;20.25;;;12.43;;
23868;SDS011;12115;47.128;15.422;2023-02-28T17:28:23;21.08;;;12.23;;
23868;SDS011;12115;47.128;15.422;2023-02-28T17:30:51;19.98;;;12.57;;
23868;SDS011;12115;47.128;15.422;2023-02-28T17:33:19;20.67;;;12.80;;
23868;SDS011;12115;47.128;15.422;2023-02-28T17:35:47;17.02;;;12.38;;
23868;SDS011;12115;47.128;15.422;2023-02-28T17:38:16;16.67;;;12.27;;
23868;SDS011;12115;47.128;15.422;2023-02-28T17:40:46;21.27;;;12.60;;
23868;SDS011;12115;47.128;15.422;2023-02-28T17:43:13;18.27;;;12.25;;
23868;SDS011;12115;47.128;15.422;2023-02-28T17:45:41;19.50;;;12.90;;
23868;SDS011;12115;47.128;15.422;2023-02-28T17:48:11;18.42;;;12.98;;
23868;SDS011;12115;47.128;15.422;2023-02-28T17:50:39;24.30;;;13.80;;
23868;SDS011;12115;47.128;15.422;2023-02-28T17:53:07;19.15;;;12.95;;
23868;SDS011;12115;47.128;15.422;2023-02-28T17:55:35;20.42;;;13.32;;
23868;SDS011;12115;47.128;15.422;2023-02-28T17:58:03;19.25;;;12.48;;
23868;SDS011;12115;47.128;15.422;2023-02-28T18:00:32;18.50;;;13.27;;
23868;SDS011;12115;47.128;15.422;2023-02-28T18:03:00;19.95;;;12.80;;
23868;SDS011;12115;47.128;15.422;2023-02-28T18:05:28;20.83;;;12.88;;